createdAt,value
2023-04-14T00:02:06.741Z,5.48
2023-04-14T00:07:09.380Z,5.46
2023-04-14T00:12:12.084Z,5.54
2023-04-14T00:17:14.505Z,5.68
2023-04-14T00:22:17.310Z,5.32
2023-04-14T00:27:19.933Z,5.28
2023-04-14T00:32:22.819Z,5.43
2023-04-14T00:37:25.569Z,5.47
2023-04-14T00:42:27.867Z,5.31
2023-04-14T00:47:30.770Z,5.26
2023-04-14T00:52:33.567Z,5.27
2023-04-14T00:57:37.055Z,5.17
2023-04-14T01:02:39.621Z,5.17
2023-04-14T01:07:42.584Z,5.23
2023-04-14T01:13:14.408Z,5.14
2023-04-14T01:18:31.199Z,5.25
2023-04-14T01:23:41.326Z,5.23
2023-04-14T01:28:50.196Z,5.29
2023-04-14T01:34:15.662Z,4.82
2023-04-14T01:39:21.815Z,4.82
2023-04-14T01:44:26.227Z,4.98
2023-04-14T01:49:34.612Z,5.17
2023-04-14T01:54:42.920Z,5.13
2023-04-14T01:59:49.489Z,4.98
2023-04-14T02:04:53.780Z,5.15
2023-04-14T02:09:59.372Z,5.48
2023-04-14T02:15:02.672Z,5.39
2023-04-14T02:20:08.383Z,5.42
2023-04-14T02:25:11.416Z,5.18
2023-04-14T02:30:29.762Z,5.31
2023-04-14T02:35:40.088Z,5.38
2023-04-14T02:40:44.192Z,5.21
2023-04-14T02:45:51.532Z,5.27
2023-04-14T02:50:56.359Z,5.43
2023-04-14T02:56:04.627Z,5.21
2023-04-14T03:01:12.564Z,5.12
2023-04-14T03:06:16.529Z,5.04
2023-04-14T03:11:20.522Z,5.12
2023-04-14T03:16:25.999Z,4.86
2023-04-14T03:21:30.709Z,4.96
2023-04-14T03:26:37.316Z,4.73
2023-04-14T03:31:44.550Z,4.65
2023-04-14T03:36:49.613Z,4.63
2023-04-14T03:41:55.304Z,4.68
2023-04-14T03:47:02.582Z,4.68
2023-04-14T03:52:13.346Z,4.68
2023-04-14T03:57:19.423Z,4.62
2023-04-14T04:02:24.464Z,4.78
2023-04-14T04:07:28.772Z,4.79
2023-04-14T04:12:32.981Z,4.78
2023-04-14T04:17:39.097Z,4.71
2023-04-14T04:22:45.730Z,4.81
2023-04-14T04:27:50.038Z,4.98
2023-04-14T04:32:53.797Z,4.95
2023-04-14T04:37:58.443Z,5.17
2023-04-14T04:43:01.081Z,5.40
2023-04-14T04:48:04.795Z,5.52
2023-04-14T04:53:07.450Z,5.62
2023-04-14T04:58:11.072Z,5.48
2023-04-14T05:03:13.752Z,5.49
2023-04-14T05:08:15.980Z,5.62
2023-04-14T05:13:18.522Z,5.72
2023-04-14T05:18:20.965Z,6.06
2023-04-14T05:23:23.711Z,6.37
2023-04-14T05:28:26.123Z,7.14
2023-04-14T05:33:29.053Z,8.22
2023-04-14T05:38:31.782Z,9.64
2023-04-14T05:43:34.519Z,12.87
2023-04-14T05:48:38.389Z,15.45
2023-04-14T05:53:41.212Z,17.13
2023-04-14T05:58:43.761Z,20.76
2023-04-14T06:03:46.561Z,22.74
2023-04-14T06:08:49.359Z,24.55
2023-04-14T06:13:51.477Z,26.45
2023-04-14T06:18:54.261Z,25.49
2023-04-14T06:23:56.769Z,28.18
2023-04-14T06:29:01.064Z,28.27
2023-04-14T06:34:03.612Z,30.21
2023-04-14T06:39:06.221Z,26.24
2023-04-14T06:44:08.766Z,26.02
2023-04-14T06:49:12.268Z,26.99
2023-04-14T06:54:14.968Z,30.46
2023-04-14T06:59:17.720Z,28.94
2023-04-14T07:05:03.912Z,26.48
2023-04-14T07:10:07.366Z,23.36
2023-04-14T07:15:10.206Z,21.90
2023-04-14T07:20:12.911Z,21.13
2023-04-14T07:25:15.726Z,20.67
2023-04-14T07:30:18.660Z,20.51
2023-04-14T07:35:20.962Z,20.66
2023-04-14T07:40:23.540Z,20.62
2023-04-14T07:45:26.133Z,21.12
2023-04-14T07:50:28.885Z,21.10
2023-04-14T07:55:31.225Z,21.70
2023-04-14T08:00:34.032Z,22.29
2023-04-14T08:05:37.218Z,23.96
2023-04-14T08:10:39.899Z,24.06
2023-04-14T08:15:45.698Z,23.46
2023-04-14T08:20:58.827Z,24.02
2023-04-14T08:26:05.179Z,22.80
2023-04-14T08:31:11.035Z,23.09
2023-04-14T08:59:30.301Z,20.45
2023-04-14T09:04:35.675Z,20.54
2023-04-14T09:09:39.480Z,20.45
2023-04-14T09:14:46.206Z,19.58
2023-04-14T09:20:38.219Z,19.50
2023-04-14T09:25:12.223Z,19.26
2023-04-14T09:30:15.936Z,19.37
2023-04-14T09:35:18.191Z,18.97
2023-04-14T09:40:31.956Z,18.65
2023-04-14T09:45:45.419Z,19.21
2023-04-14T09:51:09.881Z,18.17
2023-04-14T09:56:13.567Z,18.26
2023-04-14T10:01:18.302Z,18.05
2023-04-14T10:06:22.960Z,17.89
2023-04-14T10:11:31.031Z,18.28
2023-04-14T10:16:34.546Z,17.62
2023-04-14T10:21:38.040Z,17.70
2023-04-14T10:26:43.104Z,18.05
2023-04-14T10:31:52.949Z,17.84
2023-04-14T10:36:55.915Z,18.07
2023-04-14T10:41:58.580Z,17.71
2023-04-14T10:47:05.399Z,18.43
2023-04-14T10:52:21.471Z,18.13
2023-04-14T10:57:29.809Z,17.61
2023-04-14T11:02:34.053Z,17.99
2023-04-14T11:07:47.422Z,18.59
2023-04-14T11:12:55.125Z,18.56
2023-04-14T11:18:13.720Z,18.03
2023-04-14T11:23:16.833Z,18.53
2023-04-14T11:28:32.653Z,18.92
2023-04-14T11:33:38.608Z,18.76
2023-04-14T11:38:41.235Z,18.58
2023-04-14T11:43:47.170Z,17.95
2023-04-14T11:48:55.210Z,18.46
2023-04-14T11:53:58.964Z,18.94
2023-04-14T11:59:06.084Z,19.24
2023-04-14T12:10:23.943Z,20.00
2023-04-14T12:15:27.290Z,19.60
2023-04-14T12:20:42.076Z,19.57
2023-04-14T12:25:44.518Z,19.67
2023-04-14T12:30:54.617Z,20.61
2023-04-14T12:36:05.497Z,21.01
2023-04-14T12:41:08.385Z,21.18
2023-04-14T12:46:11.028Z,21.32
2023-04-14T12:51:17.464Z,21.51
2023-04-14T12:56:22.532Z,21.24
2023-04-14T13:01:25.297Z,20.74
2023-04-14T13:06:28.077Z,20.17
2023-04-14T13:11:31.546Z,19.86
2023-04-14T13:16:34.328Z,20.30
2023-04-14T13:21:37.161Z,19.75
2023-04-14T13:26:39.969Z,19.93
2023-04-14T13:31:42.601Z,19.74
2023-04-14T13:36:45.915Z,19.69
2023-04-14T13:41:48.780Z,19.73
2023-04-14T13:46:54.079Z,19.76
2023-04-14T13:51:56.958Z,19.55
2023-04-14T13:56:59.473Z,19.52
2023-04-14T14:02:02.275Z,19.26
2023-04-14T14:07:05.066Z,19.57
2023-04-14T14:12:08.042Z,19.61
2023-04-14T14:17:10.878Z,19.44
2023-04-14T14:22:13.445Z,19.44
2023-04-14T14:27:16.598Z,19.42
2023-04-14T14:32:19.358Z,19.72
2023-04-14T14:37:22.506Z,19.36
2023-04-14T14:42:25.079Z,19.25
2023-04-14T14:47:28.462Z,18.49
2023-04-14T14:52:32.305Z,17.82
2023-04-14T14:57:34.716Z,17.36
2023-04-14T15:02:37.644Z,17.00
2023-04-14T15:07:40.836Z,16.38
2023-04-14T15:12:43.529Z,16.36
2023-04-14T15:17:46.910Z,16.35
2023-04-14T15:22:49.241Z,16.13
2023-04-14T15:27:53.504Z,15.40
2023-04-14T15:32:56.244Z,15.27
2023-04-14T15:37:58.905Z,15.25
2023-04-14T15:43:04.399Z,15.30
2023-04-14T15:48:10.306Z,15.40
2023-04-14T15:53:12.632Z,15.29
2023-04-14T15:58:19.297Z,15.19
2023-04-14T16:03:22.240Z,14.79
2023-04-14T16:08:25.111Z,15.06
2023-04-14T16:13:31.894Z,14.71
2023-04-14T16:18:40.562Z,14.73
2023-04-14T16:23:44.011Z,14.26
2023-04-14T16:28:50.072Z,13.99
2023-04-14T16:33:53.056Z,13.73
2023-04-14T16:38:55.761Z,13.62
2023-04-14T16:43:58.505Z,13.10
2023-04-14T16:49:01.730Z,12.87
2023-04-14T16:54:04.813Z,12.70
2023-04-14T16:59:07.792Z,12.38
2023-04-14T17:04:10.587Z,12.33
2023-04-14T17:09:14.045Z,12.54
2023-04-14T17:14:17.039Z,11.75
2023-04-14T17:19:19.913Z,11.56
2023-04-14T17:24:23.404Z,11.65
2023-04-14T17:29:26.143Z,11.39
2023-04-14T17:34:29.663Z,11.66
2023-04-14T17:39:33.015Z,11.75
2023-04-14T17:44:41.739Z,11.66
2023-04-14T17:49:44.581Z,11.53
2023-04-14T17:54:56.109Z,11.46
2023-04-14T17:59:59.279Z,11.35
2023-04-14T18:05:01.545Z,11.22
2023-04-14T18:10:05.050Z,11.45
2023-04-14T18:15:07.645Z,11.33
2023-04-14T18:20:14.760Z,11.40
2023-04-14T18:25:18.732Z,11.52
2023-04-14T18:30:23.202Z,11.37
2023-04-14T18:35:25.954Z,11.32
2023-04-14T18:40:28.569Z,11.37
2023-04-14T18:45:31.166Z,11.21
2023-04-14T18:50:34.033Z,11.06
2023-04-14T18:55:43.346Z,11.15
2023-04-14T19:00:51.815Z,11.14
2023-04-14T19:05:55.755Z,10.75
2023-04-14T19:10:59.567Z,10.76
2023-04-14T19:16:06.693Z,10.95
2023-04-14T19:21:09.269Z,10.89
2023-04-14T19:26:13.751Z,10.80
2023-04-14T19:31:21.538Z,10.64
2023-04-14T19:36:24.423Z,10.63
2023-04-14T19:41:27.225Z,10.50
2023-04-14T19:46:32.469Z,10.43
2023-04-14T19:51:35.213Z,10.35
2023-04-14T19:56:38.254Z,10.40
2023-04-14T20:01:41.266Z,10.32
2023-04-14T20:06:44.025Z,10.25
2023-04-14T20:18:31.023Z,10.03
2023-04-14T20:23:33.882Z,9.91
2023-04-14T20:28:39.763Z,10.08
2023-04-14T20:33:46.954Z,10.08
2023-04-14T20:38:50.041Z,9.91
2023-04-14T20:43:52.688Z,9.81
2023-04-14T20:48:58.089Z,10.15
2023-04-14T20:54:05.210Z,10.07
2023-04-14T20:59:07.487Z,10.49
2023-04-14T21:04:11.459Z,10.77
2023-04-14T21:09:14.761Z,10.66
2023-04-14T21:15:41.638Z,10.73
2023-04-14T21:19:42.474Z,10.53
2023-04-14T21:24:48.960Z,10.58
2023-04-14T21:29:56.208Z,10.69
2023-04-14T21:35:02.448Z,10.43
2023-04-14T21:40:09.634Z,10.57
2023-04-14T21:45:12.444Z,10.25
2023-04-14T21:50:15.191Z,10.40
2023-04-14T21:55:20.290Z,10.12
2023-04-14T22:00:24.311Z,10.12
2023-04-14T22:05:27.770Z,9.97
2023-04-14T22:10:32.481Z,9.82
2023-04-14T22:15:35.205Z,10.01
2023-04-14T22:20:38.610Z,9.72
2023-04-14T22:25:41.584Z,9.52
2023-04-14T22:30:44.421Z,9.82
2023-04-14T22:35:47.097Z,9.64
2023-04-14T22:40:51.787Z,9.75
2023-04-14T22:45:55.245Z,9.84
2023-04-14T22:50:58.138Z,10.14
2023-04-14T22:56:01.024Z,10.48
2023-04-14T23:01:11.989Z,10.62
2023-04-14T23:06:23.370Z,10.26
2023-04-14T23:11:26.179Z,9.89
2023-04-14T23:16:29.038Z,10.10
2023-04-14T23:21:31.802Z,10.05
2023-04-14T23:26:34.865Z,10.04
2023-04-14T23:31:37.585Z,10.22
2023-04-14T23:36:39.938Z,10.54
2023-04-14T23:41:42.804Z,10.39
2023-04-14T23:46:45.545Z,10.44
2023-04-14T23:51:48.293Z,10.50
2023-04-14T23:56:50.442Z,10.47
